Time;durP1;ratioP1;P1;durP2;ratioP2;P2;SDS_P1;SDS_P2;PMS_P1;PMS_P2;Temp;Humidity;BMP_temperature;BMP_pressure;BME280_temperature;BME280_humidity;BME280_pressure;Samples;Min_cycle;Max_cycle;Signal;HPM_P1;HPM_P2
2024/04/21 00:02:20;;;;;;;657.80;143.57;;;8.30;54.50;;;;;;5276005;26;20020;-75
2024/04/21 00:04:51;;;;;;;507.40;85.72;;;8.20;54.50;;;;;;5274850;26;20511;-74
2024/04/21 00:07:19;;;;;;;463.85;75.97;;;8.20;54.50;;;;;;5294222;26;20021;-75
2024/04/21 00:09:50;;;;;;;470.80;76.82;;;8.10;54.50;;;;;;5278922;26;20538;-74
2024/04/21 00:12:18;;;;;;;618.00;123.68;;;8.10;54.60;;;;;;5263379;26;20029;-74
2024/04/21 00:14:48;;;;;;;476.75;75.97;;;8.10;54.60;;;;;;5271994;26;20006;-74
2024/04/21 00:17:19;;;;;;;462.08;74.60;;;8.00;54.60;;;;;;5276570;26;20010;-73
2024/04/21 00:19:50;;;;;;;441.70;69.75;;;8.00;54.70;;;;;;5281660;26;20013;-74
2024/04/21 00:22:18;;;;;;;525.55;87.43;;;8.00;54.80;;;;;;5266908;26;20014;-72
2024/04/21 00:24:48;;;;;;;670.08;144.13;;;8.00;54.90;;;;;;5264315;26;20058;-74
2024/04/21 00:27:16;;;;;;;469.98;74.40;;;8.00;55.00;;;;;;5307852;26;20448;-73
2024/04/21 00:29:47;;;;;;;518.42;86.20;;;8.20;55.10;;;;;;5299992;26;20005;-73
2024/04/21 00:32:15;;;;;;;493.55;81.15;;;8.30;55.10;;;;;;5297500;26;20029;-74
2024/04/21 00:34:50;;;;;;;510.83;85.68;;;8.40;55.10;;;;;;5276595;26;20020;-73
2024/04/21 00:37:18;;;;;;;463.42;74.40;;;8.50;55.00;;;;;;5280546;26;21722;-75
2024/04/21 00:39:49;;;;;;;486.95;79.32;;;8.60;55.00;;;;;;5278374;26;20005;-73
2024/04/21 00:42:17;;;;;;;474.73;76.50;;;8.70;54.90;;;;;;5301868;26;20033;-73
2024/04/21 00:44:47;;;;;;;460.15;74.38;;;8.80;54.90;;;;;;5280652;26;20002;-74
2024/04/21 00:47:16;;;;;;;450.40;70.35;;;8.80;54.90;;;;;;5279863;26;20010;-71
2024/04/21 00:49:50;;;;;;;481.98;92.80;;;8.90;54.90;;;;;;5276411;26;20010;-73
2024/04/21 00:52:18;;;;;;;450.23;71.22;;;9.00;54.90;;;;;;5272438;26;20572;-73
2024/04/21 00:54:49;;;;;;;459.33;72.90;;;9.00;54.70;;;;;;5279479;26;20006;-73
2024/04/21 00:57:17;;;;;;;466.63;73.78;;;9.10;54.80;;;;;;5273453;26;20340;-72
2024/04/21 00:59:47;;;;;;;640.45;128.52;;;9.10;54.70;;;;;;5277204;26;20001;-73
2024/04/21 01:02:16;;;;;;;492.95;80.82;;;9.10;54.70;;;;;;5263297;26;20024;-73
2024/04/21 01:04:50;;;;;;;455.60;71.95;;;9.10;54.70;;;;;;5281932;26;20006;-73
2024/04/21 01:07:18;;;;;;;505.15;82.53;;;9.10;54.70;;;;;;5272154;26;20006;-72
2024/04/21 01:09:49;;;;;;;472.80;75.35;;;9.20;54.90;;;;;;5277984;26;21055;-72
2024/04/21 01:12:18;;;;;;;575.75;105.22;;;9.20;54.80;;;;;;5267064;26;20013;-72
2024/04/21 01:14:48;;;;;;;466.25;73.50;;;9.20;54.70;;;;;;5288348;26;20017;-73
2024/04/21 01:17:16;;;;;;;499.77;81.50;;;9.30;54.80;;;;;;5279565;26;20017;-71
2024/04/21 01:19:50;;;;;;;445.58;70.30;;;9.30;55.40;;;;;;5280311;26;20010;-72
2024/04/21 01:22:18;;;;;;;463.13;75.63;;;9.30;54.70;;;;;;5275498;26;20044;-73
2024/04/21 01:24:51;;;;;;;659.95;138.75;;;9.30;54.70;;;;;;5282874;26;20083;-72
2024/04/21 01:27:19;;;;;;;443.63;72.25;;;9.30;54.80;;;;;;5276419;26;20011;-72
2024/04/21 01:29:50;;;;;;;472.52;78.88;;;9.30;54.70;;;;;;5280883;26;20005;-73
2024/04/21 01:32:18;;;;;;;452.02;72.93;;;9.20;54.70;;;;;;5271779;26;20024;-72
2024/04/21 01:34:48;;;;;;;445.05;70.30;;;9.20;54.80;;;;;;5286251;26;20009;-72
2024/04/21 01:37:17;;;;;;;596.17;112.40;;;9.30;54.90;;;;;;5309410;26;20507;-72
2024/04/21 01:39:48;;;;;;;445.52;71.35;;;9.30;54.90;;;;;;5281107;26;20069;-73
2024/04/21 01:42:18;;;;;;;450.90;71.90;;;9.40;54.90;;;;;;5276680;26;20123;-72
2024/04/21 01:44:49;;;;;;;460.83;74.25;;;9.40;54.80;;;;;;5290634;26;20484;-72
2024/04/21 01:47:17;;;;;;;443.75;71.68;;;9.40;54.70;;;;;;5308230;26;20372;-73
2024/04/21 01:49:47;;;;;;;653.75;135.98;;;9.40;54.70;;;;;;5269346;26;20085;-72
2024/04/21 01:52:15;;;;;;;471.77;90.63;;;9.40;54.70;;;;;;5288107;26;20017;-71
2024/04/21 01:54:46;;;;;;;470.10;76.65;;;9.40;54.60;;;;;;5284008;26;20024;-72
2024/04/21 01:57:13;;;;;;;463.13;76.05;;;9.40;54.60;;;;;;5286665;26;20060;-71
2024/04/21 01:59:47;;;;;;;456.73;73.28;;;9.20;54.60;;;;;;5280662;26;20087;-71
2024/04/21 02:02:15;;;;;;;473.52;77.55;;;9.10;54.60;;;;;;5275958;26;20006;-70
2024/04/21 02:04:45;;;;;;;446.35;71.18;;;9.00;54.70;;;;;;5272094;26;20002;-72
2024/04/21 02:07:13;;;;;;;642.22;131.05;;;8.90;54.80;;;;;;5274386;26;20029;-71
2024/04/21 02:09:44;;;;;;;451.80;72.45;;;8.90;54.90;;;;;;5293688;26;20016;-70
2024/04/21 02:12:12;;;;;;;458.70;74.07;;;8.90;54.90;;;;;;5278420;26;20005;-71
2024/04/21 02:14:42;;;;;;;447.08;71.55;;;8.90;55.00;;;;;;5311104;26;20006;-72
2024/04/21 02:17:13;;;;;;;466.00;76.50;;;9.00;55.00;;;;;;5266080;26;20060;-72
2024/04/21 02:19:43;;;;;;;458.83;73.32;;;9.00;55.00;;;;;;5283358;26;20378;-71
2024/04/21 02:22:11;;;;;;;472.95;77.55;;;9.00;54.90;;;;;;5281049;26;20889;-72
2024/04/21 02:24:44;;;;;;;452.55;71.95;;;9.10;54.90;;;;;;5282772;26;20108;-70
2024/04/21 02:27:12;;;;;;;689.95;154.63;;;9.10;54.90;;;;;;5273162;26;20044;-69
2024/04/21 02:29:43;;;;;;;472.52;76.25;;;9.10;54.90;;;;;;5285070;26;20811;-71
2024/04/21 02:32:13;;;;;;;488.10;81.72;;;9.10;54.90;;;;;;5283493;26;20505;-71
2024/04/21 02:34:45;;;;;;;486.15;79.28;;;9.10;54.90;;;;;;5274723;26;20510;-71
2024/04/21 02:37:12;;;;;;;482.60;81.22;;;9.10;54.90;;;;;;5280999;26;20040;-69
2024/04/21 02:39:43;;;;;;;469.58;76.70;;;9.10;55.00;;;;;;5268783;26;20011;-70
2024/04/21 02:42:11;;;;;;;482.98;78.40;;;9.20;55.00;;;;;;5279894;26;20002;-70
2024/04/21 02:44:42;;;;;;;459.48;74.43;;;9.20;55.00;;;;;;5285857;26;20016;-72
2024/04/21 02:47:12;;;;;;;465.92;75.45;;;9.30;55.00;;;;;;5269398;26;20449;-71
2024/04/21 02:49:43;;;;;;;444.48;71.80;;;9.30;54.90;;;;;;5283217;26;20464;-70
2024/04/21 02:52:10;;;;;;;724.80;160.18;;;9.30;54.80;;;;;;5294459;26;20030;-71
2024/04/21 02:54:41;;;;;;;453.83;72.47;;;9.30;54.90;;;;;;5287225;26;20016;-71
2024/04/21 02:57:09;;;;;;;522.53;91.93;;;9.40;54.90;;;;;;5279664;26;20010;-70
2024/04/21 02:59:39;;;;;;;446.35;70.97;;;9.40;54.80;;;;;;5274211;26;20012;-71
2024/04/21 03:02:07;;;;;;;482.05;78.35;;;9.40;54.80;;;;;;5281214;26;20021;-71
2024/04/21 03:04:40;;;;;;;476.10;77.03;;;9.50;55.40;;;;;;5279058;26;20018;-70
2024/04/21 03:07:08;;;;;;;653.85;141.00;;;9.50;54.80;;;;;;5267008;26;20001;-71
2024/04/21 03:09:39;;;;;;;463.15;74.57;;;9.50;54.70;;;;;;5286163;26;20013;-71
2024/04/21 03:12:07;;;;;;;466.65;75.95;;;9.50;54.70;;;;;;5269267;26;20014;-70
2024/04/21 03:14:37;;;;;;;459.05;76.55;;;9.50;54.70;;;;;;5301144;26;20006;-70
2024/04/21 03:17:07;;;;;;;658.47;141.20;;;9.50;54.80;;;;;;5276626;26;20029;-70
2024/04/21 03:19:40;;;;;;;502.52;82.57;;;9.60;54.90;;;;;;5276412;26;20034;-72
2024/04/21 03:22:07;;;;;;;455.48;72.53;;;9.60;54.80;;;;;;5275349;26;20500;-71
2024/04/21 03:24:38;;;;;;;458.73;74.60;;;9.60;54.70;;;;;;5280212;27;20362;-71
2024/04/21 03:27:06;;;;;;;629.58;134.40;;;9.70;54.80;;;;;;5277804;26;20014;-72
2024/04/21 03:29:39;;;;;;;475.35;78.07;;;9.70;54.70;;;;;;5277427;26;20005;-72
2024/04/21 03:32:07;;;;;;;469.05;75.57;;;9.80;54.80;;;;;;5273123;26;20013;-70
2024/04/21 03:34:40;;;;;;;505.63;85.20;;;9.80;54.70;;;;;;5270793;26;20017;-70
2024/04/21 03:37:11;;;;;;;689.97;151.32;;;9.80;54.70;;;;;;5261493;26;20527;-71
2024/04/21 03:39:41;;;;;;;475.00;77.57;;;9.90;54.70;;;;;;5278853;26;20105;-71
2024/04/21 03:42:12;;;;;;;449.00;72.35;;;9.90;54.70;;;;;;5284763;26;20021;-70
2024/04/21 03:44:40;;;;;;;449.85;72.00;;;9.90;54.70;;;;;;5286469;26;20030;-71
2024/04/21 03:47:10;;;;;;;655.15;144.10;;;10.00;54.70;;;;;;5273407;26;20017;-71
2024/04/21 03:49:41;;;;;;;456.13;73.80;;;10.00;54.70;;;;;;5276066;26;20006;-70
2024/04/21 03:52:11;;;;;;;477.23;76.88;;;10.10;54.70;;;;;;5280337;26;20009;-71
2024/04/21 03:54:39;;;;;;;482.13;79.45;;;10.10;54.70;;;;;;5281216;26;20485;-71
2024/04/21 03:57:10;;;;;;;620.63;121.05;;;10.10;54.60;;;;;;5302509;26;20005;-71
2024/04/21 03:59:38;;;;;;;532.75;92.80;;;10.20;54.70;;;;;;5277801;26;20029;-72
2024/04/21 04:02:08;;;;;;;466.33;79.53;;;10.20;54.70;;;;;;5288535;26;20013;-72
2024/04/21 04:04:36;;;;;;;468.08;77.68;;;10.20;54.60;;;;;;5283128;26;20018;-72
2024/04/21 04:07:10;;;;;;;639.25;123.47;;;10.30;54.60;;;;;;5278168;26;20002;-72
2024/04/21 04:09:37;;;;;;;449.58;72.43;;;10.30;54.60;;;;;;5280880;26;20010;-74
2024/04/21 04:12:08;;;;;;;467.25;75.18;;;10.30;54.50;;;;;;5267579;26;20400;-73
2024/04/21 04:14:36;;;;;;;559.10;103.03;;;10.30;54.50;;;;;;5271123;26;20006;-73
2024/04/21 04:17:07;;;;;;;639.30;128.00;;;10.20;54.40;;;;;;5281612;26;20427;-73
2024/04/21 04:19:35;;;;;;;583.63;105.80;;;10.10;54.50;;;;;;5269409;26;20016;-73
2024/04/21 04:22:11;;;;;;;443.92;70.68;;;10.00;54.60;;;;;;5284607;26;20065;-72
2024/04/21 04:24:39;;;;;;;462.38;74.93;;;9.80;54.50;;;;;;5274958;26;20002;-72
2024/04/21 04:27:10;;;;;;;679.10;138.13;;;9.70;54.50;;;;;;5299160;26;20002;-71
2024/04/21 04:29:37;;;;;;;475.00;77.07;;;9.60;54.60;;;;;;5270045;26;20006;-71
2024/04/21 04:32:08;;;;;;;446.70;72.15;;;9.50;54.70;;;;;;5274893;26;20021;-72
2024/04/21 04:34:37;;;;;;;462.08;77.22;;;9.50;54.90;;;;;;5276098;26;20017;-77
2024/04/21 04:37:10;;;;;;;647.58;131.18;;;9.50;55.00;;;;;;5255355;26;20017;-70
2024/04/21 04:39:38;;;;;;;476.23;78.97;;;9.50;55.10;;;;;;5273499;26;20047;-72
2024/04/21 04:42:09;;;;;;;504.23;87.95;;;9.60;55.20;;;;;;5305239;26;20009;-72
2024/04/21 04:44:36;;;;;;;478.17;80.43;;;9.70;55.20;;;;;;5278906;26;20046;-74
2024/04/21 04:47:08;;;;;;;713.22;148.43;;;9.80;55.30;;;;;;5284145;26;20010;-74
2024/04/21 04:49:36;;;;;;;453.77;75.07;;;10.00;55.30;;;;;;5274916;26;20917;-73
2024/04/21 04:52:07;;;;;;;459.67;77.07;;;10.10;55.20;;;;;;5308822;26;20002;-72
2024/04/21 04:54:38;;;;;;;487.67;81.10;;;10.30;55.10;;;;;;5281826;26;20112;-76
2024/04/21 04:57:09;;;;;;;509.42;91.78;;;10.40;55.00;;;;;;5278028;26;20013;-73
2024/04/21 04:59:37;;;;;;;478.77;80.63;;;10.50;55.20;;;;;;5282440;26;20079;-73
2024/04/21 05:02:08;;;;;;;510.70;85.32;;;10.50;54.70;;;;;;5301866;26;20023;-72
2024/04/21 05:04:36;;;;;;;473.90;78.45;;;10.50;54.80;;;;;;5276760;26;20007;-68
2024/04/21 05:07:07;;;;;;;518.80;90.97;;;10.50;54.80;;;;;;5278418;26;20001;-69
2024/04/21 05:09:43;;;;;;;479.23;78.95;;;10.50;54.70;;;;;;5311186;26;20061;-69
2024/04/21 05:12:13;;;;;;;486.65;80.22;;;10.40;54.80;;;;;;5303008;26;20239;-68
2024/04/21 05:14:43;;;;;;;593.50;113.32;;;10.40;54.70;;;;;;5298048;26;20014;-69
2024/04/21 05:17:13;;;;;;;495.90;86.07;;;10.50;54.80;;;;;;5268906;26;20301;-68
2024/04/21 05:19:41;;;;;;;468.65;76.88;;;10.60;55.60;;;;;;5272281;26;20016;-69
2024/04/21 05:22:11;;;;;;;472.73;78.28;;;10.80;55.00;;;;;;5308535;26;20001;-68
2024/04/21 05:24:42;;;;;;;466.88;79.18;;;10.90;54.70;;;;;;5270357;26;20017;-70
2024/04/21 05:27:13;;;;;;;467.05;80.03;;;11.00;54.60;;;;;;5265409;26;20007;-69
2024/04/21 05:29:41;;;;;;;505.42;86.05;;;11.20;54.50;;;;;;5272068;26;20029;-70
2024/04/21 05:32:12;;;;;;;465.10;78.75;;;11.30;54.40;;;;;;5270342;26;20010;-68
2024/04/21 05:34:40;;;;;;;491.13;84.07;;;11.30;54.20;;;;;;5264736;26;20151;-68
2024/04/21 05:37:10;;;;;;;497.30;84.85;;;11.20;54.00;;;;;;5262141;26;20026;-67
2024/04/21 05:39:38;;;;;;;513.10;88.88;;;11.10;54.00;;;;;;5264893;26;20838;-67
2024/04/21 05:42:12;;;;;;;486.17;83.18;;;11.00;54.20;;;;;;5272630;26;20018;-69
2024/04/21 05:44:39;;;;;;;491.90;83.50;;;10.90;54.90;;;;;;5274508;26;20472;-69
2024/04/21 05:47:10;;;;;;;487.92;82.55;;;10.80;54.30;;;;;;5302271;26;20014;-69
2024/04/21 05:49:38;;;;;;;465.27;77.47;;;10.70;54.50;;;;;;5266028;26;20091;-70
2024/04/21 05:52:08;;;;;;;471.02;78.55;;;10.70;54.60;;;;;;5270137;26;20003;-69
2024/04/21 05:54:36;;;;;;;498.92;84.93;;;10.70;54.50;;;;;;5294257;26;20018;-69
2024/04/21 05:57:07;;;;;;;474.48;80.60;;;10.70;54.50;;;;;;5305678;26;20037;-68
2024/04/21 05:59:37;;;;;;;642.25;142.07;;;10.60;54.60;;;;;;5257436;26;20007;-71
2024/04/21 06:02:08;;;;;;;491.17;82.57;;;10.60;54.50;;;;;;5267616;26;20013;-69
2024/04/21 06:04:36;;;;;;;503.45;85.75;;;10.50;54.50;;;;;;5265769;26;20414;-68
2024/04/21 06:07:07;;;;;;;484.17;82.70;;;10.50;54.50;;;;;;5268066;26;21038;-68
2024/04/21 06:09:35;;;;;;;679.38;150.27;;;10.50;54.50;;;;;;5252601;26;20016;-67
2024/04/21 06:12:06;;;;;;;451.27;75.53;;;10.50;54.50;;;;;;5271820;26;20034;-68
2024/04/21 06:14:34;;;;;;;468.85;78.07;;;10.40;54.50;;;;;;5279838;26;20689;-67
2024/04/21 06:17:07;;;;;;;465.70;77.47;;;10.40;54.90;;;;;;5265167;26;20762;-68
2024/04/21 06:19:35;;;;;;;661.50;138.20;;;10.30;54.40;;;;;;5251286;26;20002;-67
2024/04/21 06:22:06;;;;;;;474.33;79.57;;;10.30;54.40;;;;;;5259421;26;20469;-67
2024/04/21 06:24:34;;;;;;;481.42;80.30;;;10.20;54.40;;;;;;5265486;26;20357;-68
2024/04/21 06:27:05;;;;;;;477.20;80.05;;;10.10;54.30;;;;;;5261804;26;20021;-68
2024/04/21 06:29:33;;;;;;;510.20;87.50;;;10.00;54.30;;;;;;5269764;26;20005;-69
2024/04/21 06:32:04;;;;;;;460.90;75.20;;;10.00;54.30;;;;;;5279562;26;20312;-69
2024/04/21 06:34:35;;;;;;;538.47;97.78;;;9.80;54.20;;;;;;5272893;26;20003;-69
2024/04/21 06:37:06;;;;;;;456.48;76.03;;;9.70;54.50;;;;;;5285505;26;19997;-71
2024/04/21 06:39:34;;;;;;;493.63;83.47;;;9.60;55.10;;;;;;5303998;26;20451;-70
2024/04/21 06:42:05;;;;;;;470.17;80.95;;;9.50;55.70;;;;;;5270661;26;20093;-70
2024/04/21 06:44:33;;;;;;;456.48;74.55;;;9.40;56.00;;;;;;5275742;26;20003;-73
2024/04/21 06:47:04;;;;;;;455.90;74.20;;;9.40;56.10;;;;;;5280438;26;20002;-73
2024/04/21 06:49:36;;;;;;;447.98;73.85;;;9.30;56.20;;;;;;5286039;26;20714;-66
2024/04/21 06:52:08;;;;;;;662.80;148.48;;;9.20;56.30;;;;;;5268955;26;20046;-64
2024/04/21 06:54:36;;;;;;;452.02;75.15;;;9.10;56.50;;;;;;5272167;26;20006;-65
2024/04/21 06:57:07;;;;;;;449.10;75.38;;;9.00;56.40;;;;;;5314967;26;20001;-66
2024/04/21 06:59:35;;;;;;;516.47;91.13;;;8.80;56.50;;;;;;5272838;26;20057;-67
2024/04/21 07:02:06;;;;;;;468.42;78.85;;;8.60;56.60;;;;;;5268163;26;20007;-69
2024/04/21 07:04:37;;;;;;;564.38;104.90;;;8.50;56.80;;;;;;5271506;26;21137;-67
2024/04/21 07:07:08;;;;;;;458.95;78.03;;;8.30;56.90;;;;;;5275373;26;20011;-68
2024/04/21 07:09:40;;;;;;;467.33;79.38;;;8.30;57.10;;;;;;5269066;26;20034;-68
2024/04/21 07:12:11;;;;;;;449.33;76.35;;;8.20;57.20;;;;;;5271340;26;20010;-65
2024/04/21 07:14:39;;;;;;;525.60;95.72;;;8.10;57.20;;;;;;5274114;26;20065;-64
2024/04/21 07:17:10;;;;;;;440.63;73.90;;;8.10;57.30;;;;;;5305997;26;20002;-65
2024/04/21 07:19:41;;;;;;;483.10;83.95;;;8.10;57.40;;;;;;5272983;26;20015;-64
2024/04/21 07:22:11;;;;;;;531.40;99.38;;;8.20;57.50;;;;;;5280181;26;20006;-65
2024/04/21 07:24:42;;;;;;;591.13;114.75;;;8.20;57.50;;;;;;5268150;26;20058;-71
2024/04/21 07:27:14;;;;;;;481.60;85.28;;;8.00;57.50;;;;;;5274590;26;20006;-66
2024/04/21 07:29:42;;;;;;;463.95;81.40;;;7.80;57.70;;;;;;5280013;26;20856;-62
2024/04/21 07:32:12;;;;;;;444.80;76.10;;;7.60;58.00;;;;;;5280995;26;20003;-62
2024/04/21 07:34:43;;;;;;;451.85;75.28;;;7.50;58.50;;;;;;5290645;26;20032;-68
2024/04/21 07:37:13;;;;;;;660.17;151.90;;;7.60;59.50;;;;;;5297506;26;20001;-68
2024/04/21 07:39:41;;;;;;;481.25;79.97;;;7.60;59.40;;;;;;5309586;26;20539;-67
2024/04/21 07:42:12;;;;;;;443.40;73.30;;;7.70;59.50;;;;;;5262210;26;20020;-67
2024/04/21 07:44:40;;;;;;;486.67;84.68;;;7.80;59.60;;;;;;5276388;26;20006;-75
2024/04/21 07:47:11;;;;;;;487.67;84.07;;;8.00;60.30;;;;;;5281522;26;20005;-68
2024/04/21 07:49:42;;;;;;;448.13;76.65;;;8.10;60.50;;;;;;5276965;26;20057;-67
2024/04/21 07:52:12;;;;;;;445.98;74.53;;;8.20;59.70;;;;;;5315171;26;20823;-67
2024/04/21 07:54:40;;;;;;;508.00;86.78;;;8.40;60.00;;;;;;5280472;26;20050;-67
2024/04/21 07:57:11;;;;;;;450.42;75.70;;;8.60;60.00;;;;;;5277815;26;20080;-63
2024/04/21 07:59:39;;;;;;;496.92;88.43;;;8.90;60.30;;;;;;5310236;26;20014;-67
2024/04/21 08:02:10;;;;;;;444.52;76.22;;;9.10;60.20;;;;;;5290656;26;20684;-68
2024/04/21 08:04:38;;;;;;;467.33;80.60;;;9.30;60.30;;;;;;5306639;26;20006;-68
2024/04/21 08:07:12;;;;;;;503.70;92.88;;;9.50;60.20;;;;;;5277701;26;20002;-67
2024/04/21 08:09:41;;;;;;;649.35;134.75;;;9.70;60.20;;;;;;5267613;26;20080;-68
2024/04/21 08:12:11;;;;;;;520.00;94.43;;;10.00;60.70;;;;;;5280508;26;20006;-69
2024/04/21 08:14:39;;;;;;;504.27;88.40;;;10.20;60.40;;;;;;5274246;26;20005;-68
2024/04/21 08:17:10;;;;;;;483.77;80.95;;;10.50;60.70;;;;;;5278686;26;20013;-69
2024/04/21 08:19:38;;;;;;;471.15;82.20;;;10.90;60.70;;;;;;5299533;26;20561;-69
2024/04/21 08:22:11;;;;;;;471.08;81.53;;;11.10;60.00;;;;;;5284459;26;20002;-70
2024/04/21 08:24:40;;;;;;;457.45;82.30;;;11.20;59.70;;;;;;5279216;26;20013;-68
2024/04/21 08:27:10;;;;;;;495.63;87.47;;;11.40;60.50;;;;;;5280419;26;20005;-67
2024/04/21 08:29:38;;;;;;;483.88;87.18;;;12.20;62.60;;;;;;5275645;26;20006;-68
2024/04/21 08:32:10;;;;;;;478.40;85.05;;;13.40;62.70;;;;;;5277310;26;20011;-66
2024/04/21 08:34:38;;;;;;;517.50;98.05;;;15.00;62.90;;;;;;5281872;26;20014;-66
2024/04/21 08:37:12;;;;;;;491.23;92.20;;;16.70;62.20;;;;;;5281589;26;20005;-67
2024/04/21 08:39:40;;;;;;;664.10;158.88;;;18.20;60.90;;;;;;5279755;26;20028;-67
2024/04/21 08:42:12;;;;;;;490.95;99.90;;;19.30;58.80;;;;;;5278324;26;20009;-67
2024/04/21 08:44:40;;;;;;;509.00;106.22;;;19.50;58.30;;;;;;5312565;26;20012;-68
2024/04/21 08:47:13;;;;;;;510.50;105.28;;;19.70;56.90;;;;;;5275285;26;20080;-67
2024/04/21 08:49:44;;;;;;;499.60;106.80;;;19.60;56.60;;;;;;5314839;26;20009;-66
2024/04/21 08:52:18;;;;;;;693.10;175.65;;;19.60;55.80;;;;;;5260633;26;20009;-67
2024/04/21 08:54:48;;;;;;;575.08;124.25;;;19.60;56.40;;;;;;5262654;26;20243;-69
2024/04/21 08:57:21;;;;;;;549.85;122.63;;;20.00;57.30;;;;;;5287056;26;20017;-67
2024/04/21 08:59:53;;;;;;;540.05;124.13;;;20.80;57.80;;;;;;5278169;26;20016;-67
2024/04/21 09:02:25;;;;;;;625.38;159.38;;;22.20;57.60;;;;;;5292037;26;20374;-68
2024/04/21 09:04:55;;;;;;;498.60;120.60;;;23.30;56.90;;;;;;5275778;26;20002;-66
2024/04/21 09:07:32;;;;;;;537.15;132.13;;;24.00;54.80;;;;;;5277865;26;21497;-68
2024/04/21 09:10:00;;;;;;;506.98;125.38;;;23.90;53.80;;;;;;5280078;26;20002;-66
2024/04/21 09:12:33;;;;;;;587.55;152.77;;;24.20;53.00;;;;;;5282890;26;20006;-69
2024/04/21 09:15:02;;;;;;;539.58;148.07;;;23.90;52.80;;;;;;5278763;26;20321;-68
2024/04/21 09:17:33;;;;;;;634.40;166.70;;;24.10;53.20;;;;;;5275757;26;21243;-67
2024/04/21 09:20:03;;;;;;;508.23;143.10;;;25.10;53.50;;;;;;5291201;26;20021;-72
2024/04/21 09:22:38;;;;;;;572.80;162.98;;;25.70;52.20;;;;;;5280482;26;20014;-67
2024/04/21 09:25:07;;;;;;;525.63;163.05;;;26.30;51.70;;;;;;5280385;26;20541;-71
2024/04/21 09:27:37;;;;;;;671.13;218.45;;;26.90;51.50;;;;;;5269876;26;20546;-71
2024/04/21 09:30:06;;;;;;;528.95;166.90;;;28.30;52.00;;;;;;5310279;26;20017;-70
2024/04/21 09:32:38;;;;;;;550.15;172.13;;;28.30;49.00;;;;;;5280355;26;20009;-71
2024/04/21 09:35:06;;;;;;;585.30;175.00;;;27.30;49.40;;;;;;5281791;26;20005;-68
2024/04/21 09:37:45;;;;;;;568.90;181.95;;;27.60;50.60;;;;;;5278741;26;20006;-69
2024/04/21 09:40:14;;;;;;;645.15;220.48;;;28.00;49.10;;;;;;5300966;26;19998;-73
2024/04/21 09:42:47;;;;;;;536.08;159.73;;;27.30;48.20;;;;;;5288881;26;20005;-69
2024/04/21 09:45:17;;;;;;;567.80;167.80;;;26.70;48.60;;;;;;5271476;26;20021;-70
2024/04/21 09:47:49;;;;;;;558.05;165.88;;;26.10;49.00;;;;;;5282578;26;20539;-72
2024/04/21 09:50:22;;;;;;;541.13;172.77;;;27.20;51.00;;;;;;5269933;26;20006;-69
2024/04/21 09:53:05;;;;;;;596.00;210.55;;;29.40;50.30;;;;;;5274998;26;20005;-70
2024/04/21 09:55:39;;;;;;;541.42;215.40;;;30.80;47.50;;;;;;5273896;26;20024;-67
2024/04/21 09:58:15;;;;;;;578.95;202.75;;;29.90;46.10;;;;;;5266579;26;20014;-70
2024/04/21 10:01:00;;;;;;;615.58;218.77;;;29.20;46.80;;;;;;5303903;26;19997;-70
2024/04/21 10:03:34;;;;;;;556.78;211.40;;;29.70;47.10;;;;;;5277023;26;20006;-69
2024/04/21 10:06:11;;;;;;;554.00;191.30;;;29.90;45.70;;;;;;5306251;26;20045;-73
2024/04/21 10:08:48;;;;;;;546.88;178.65;;;28.70;43.90;;;;;;5275684;26;20083;-72
2024/04/21 10:11:19;;;;;;;579.42;183.65;;;27.60;44.60;;;;;;5267716;26;22226;-71
2024/04/21 10:13:48;;;;;;;541.65;197.45;;;27.60;47.00;;;;;;5294511;26;20042;-72
2024/04/21 10:16:19;;;;;;;547.78;188.73;;;27.90;46.40;;;;;;5276360;26;20739;-71
2024/04/21 10:19:01;;;;;;;549.25;179.43;;;27.80;45.90;;;;;;5300230;26;20156;-77
2024/04/21 10:21:33;;;;;;;546.95;159.65;;;27.30;45.70;;;;;;5271601;26;20072;-72
2024/04/21 10:24:06;;;;;;;591.65;175.25;;;26.60;45.90;;;;;;5306643;26;20159;-70
2024/04/21 10:26:37;;;;;;;572.88;161.35;;;25.90;46.40;;;;;;5307952;26;20060;-73
2024/04/21 10:29:12;;;;;;;705.78;213.52;;;26.00;47.80;;;;;;5269042;26;20009;-75
2024/04/21 10:31:44;;;;;;;521.33;149.03;;;27.50;47.90;;;;;;5310427;26;20388;-73
2024/04/21 10:34:31;;;;;;;572.45;176.07;;;28.90;46.30;;;;;;5271442;26;20083;-72
2024/04/21 10:37:06;;;;;;;695.13;235.40;;;29.80;42.80;;;;;;5264276;26;20041;-73
2024/04/21 10:39:39;;;;;;;531.38;168.82;;;29.80;42.50;;;;;;5251130;26;20378;-73
2024/04/21 10:42:13;;;;;;;550.97;176.82;;;30.10;42.00;;;;;;5264654;26;20006;-71
2024/04/21 10:44:43;;;;;;;;;;;29.60;40.20;;;;;;5307683;26;20523;-74
2024/04/21 10:47:16;;;;;;;562.40;182.63;;;29.10;39.90;;;;;;5298230;26;20519;-70
2024/04/21 10:49:47;;;;;;;554.05;164.85;;;28.70;39.60;;;;;;5305596;26;20074;-72
2024/04/21 10:52:21;;;;;;;530.85;146.90;;;28.60;41.00;;;;;;5279584;26;20024;-63
2024/04/21 10:54:53;;;;;;;542.63;146.55;;;27.60;39.50;;;;;;5268471;26;20017;-75
2024/04/21 10:57:26;;;;;;;554.47;151.25;;;27.10;41.60;;;;;;5274100;26;20005;-78
2024/04/21 10:59:56;;;;;;;532.65;143.35;;;27.60;42.00;;;;;;5280463;26;20877;-76
2024/04/21 11:02:27;;;;;;;538.88;151.50;;;26.70;41.00;;;;;;5305992;26;20054;-72
2024/04/21 11:04:57;;;;;;;685.90;185.07;;;25.40;41.70;;;;;;5265852;26;20774;-72
2024/04/21 11:07:29;;;;;;;517.35;122.47;;;24.00;42.70;;;;;;5270738;26;20006;-76
2024/04/21 11:10:02;;;;;;;551.65;130.82;;;23.60;44.50;;;;;;5304767;26;20110;-74
2024/04/21 11:12:36;;;;;;;590.42;140.45;;;23.60;45.00;;;;;;5264874;26;20815;-74
2024/04/21 11:15:06;;;;;;;756.70;209.43;;;23.30;45.00;;;;;;5261790;26;20054;-75
2024/04/21 11:17:37;;;;;;;546.28;120.93;;;22.70;45.10;;;;;;5266700;26;20029;-78
2024/04/21 11:20:13;;;;;;;530.83;120.95;;;22.10;45.40;;;;;;5269586;26;20013;-78
2024/04/21 11:22:45;;;;;;;522.03;114.10;;;21.60;45.80;;;;;;5265979;26;20006;-77
2024/04/21 11:25:17;;;;;;;727.70;189.32;;;21.10;46.80;;;;;;5258250;26;20256;-77
2024/04/21 11:27:49;;;;;;;534.10;113.47;;;20.70;47.20;;;;;;5269167;26;20006;-81
2024/04/21 11:30:23;;;;;;;527.03;108.70;;;20.40;47.50;;;;;;5300555;26;20073;-76
2024/04/21 11:32:56;;;;;;;513.53;106.82;;;20.20;48.00;;;;;;5272637;26;19998;-74
2024/04/21 11:35:25;;;;;;;542.22;108.22;;;20.20;48.30;;;;;;5259519;26;20009;-74
2024/04/21 11:37:56;;;;;;;540.30;107.57;;;20.20;48.40;;;;;;5259412;26;20018;-75
2024/04/21 11:40:26;;;;;;;525.88;104.43;;;20.10;48.00;;;;;;5271372;26;20021;-76
2024/04/21 11:42:59;;;;;;;495.33;98.95;;;20.00;48.10;;;;;;5302995;26;20085;-74
2024/04/21 11:45:28;;;;;;;509.52;101.22;;;19.90;48.30;;;;;;5251401;26;20080;-75
2024/04/21 11:47:59;;;;;;;513.13;99.22;;;19.80;48.20;;;;;;5265725;26;20128;-74
2024/04/21 11:50:28;;;;;;;522.72;103.03;;;19.90;48.30;;;;;;5261413;26;20014;-75
2024/04/21 11:52:59;;;;;;;522.22;106.55;;;20.00;48.30;;;;;;5263214;26;20016;-75
2024/04/21 11:55:31;;;;;;;506.90;106.28;;;20.10;48.20;;;;;;5296954;26;20007;-77
2024/04/21 11:58:04;;;;;;;525.72;108.30;;;20.20;48.00;;;;;;5306781;26;20812;-76
2024/04/21 12:00:33;;;;;;;573.40;123.05;;;20.30;47.80;;;;;;5269328;26;20410;-76
2024/04/21 12:03:05;;;;;;;500.63;105.70;;;20.30;47.60;;;;;;5303838;26;20008;-76
2024/04/21 12:05:34;;;;;;;510.33;100.90;;;20.20;47.40;;;;;;5278798;26;20922;-78
2024/04/21 12:08:05;;;;;;;547.22;111.30;;;20.20;47.60;;;;;;5306164;26;20005;-74
2024/04/21 12:10:36;;;;;;;498.33;103.35;;;20.20;47.60;;;;;;5281017;26;20002;-75
2024/04/21 12:13:08;;;;;;;533.60;111.70;;;20.00;47.50;;;;;;5290711;26;20013;-74
2024/04/21 12:15:37;;;;;;;531.25;103.00;;;19.90;47.40;;;;;;5307703;26;19998;-74
2024/04/21 12:18:09;;;;;;;502.92;99.45;;;19.80;47.50;;;;;;5269452;26;20076;-77
2024/04/21 12:20:38;;;;;;;566.95;112.15;;;19.60;47.40;;;;;;5278880;26;20021;-76
2024/04/21 12:23:10;;;;;;;546.10;106.72;;;19.50;47.50;;;;;;5269878;26;20441;-81
2024/04/21 12:25:42;;;;;;;518.78;97.43;;;19.30;47.50;;;;;;5294498;26;20006;-76
2024/04/21 12:28:16;;;;;;;539.30;107.03;;;19.00;47.60;;;;;;5277750;26;20006;-73
2024/04/21 12:30:45;;;;;;;532.95;102.95;;;18.60;47.80;;;;;;5264840;26;20034;-72
2024/04/21 12:33:17;;;;;;;591.97;124.28;;;18.30;48.10;;;;;;5267655;26;20017;-69
2024/04/21 12:35:45;;;;;;;539.35;102.60;;;18.20;49.00;;;;;;5261173;26;20002;-63